sensor_id;sensor_type;location;lat;lon;timestamp;pressure;altitude;pressure_sealevel;temperature;humidity
10539;BME280;5317;49.048;8.468;2022-08-25T00:02:06;112049.66;;;-142.21;49.68
10539;BME280;5317;49.048;8.468;2022-08-25T00:04:34;112049.66;;;-142.21;49.92
10539;BME280;5317;49.048;8.468;2022-08-25T00:07:03;112049.66;;;-142.21;49.92
10539;BME280;5317;49.048;8.468;2022-08-25T00:09:33;112049.66;;;-142.21;50.17
10539;BME280;5317;49.048;8.468;2022-08-25T00:12:04;112049.66;;;-142.21;50.26
10539;BME280;5317;49.048;8.468;2022-08-25T00:14:36;112049.66;;;-142.21;49.89
10539;BME280;5317;49.048;8.468;2022-08-25T00:17:06;112049.66;;;-142.21;50.71
10539;BME280;5317;49.048;8.468;2022-08-25T00:19:36;112049.66;;;-142.21;50.97
10539;BME280;5317;49.048;8.468;2022-08-25T00:22:06;112049.66;;;-142.21;50.96
10539;BME280;5317;49.048;8.468;2022-08-25T00:24:34;112049.66;;;-142.21;51.80
10539;BME280;5317;49.048;8.468;2022-08-25T00:27:03;112049.66;;;-142.21;51.87
10539;BME280;5317;49.048;8.468;2022-08-25T00:29:33;112049.66;;;-142.21;52.01
10539;BME280;5317;49.048;8.468;2022-08-25T00:32:04;112049.66;;;-142.21;52.86
10539;BME280;5317;49.048;8.468;2022-08-25T00:34:35;112049.66;;;-142.21;52.94
10539;BME280;5317;49.048;8.468;2022-08-25T00:37:06;112049.66;;;-142.21;53.37
10539;BME280;5317;49.048;8.468;2022-08-25T00:39:35;112049.66;;;-142.21;53.94
10539;BME280;5317;49.048;8.468;2022-08-25T00:42:06;112049.66;;;-142.21;54.26
10539;BME280;5317;49.048;8.468;2022-08-25T00:44:34;112049.66;;;-142.21;54.41
10539;BME280;5317;49.048;8.468;2022-08-25T00:47:04;112049.66;;;-142.21;54.72
10539;BME280;5317;49.048;8.468;2022-08-25T00:49:36;112049.66;;;-142.21;54.64
10539;BME280;5317;49.048;8.468;2022-08-25T00:52:10;112049.66;;;-142.21;54.95
10539;BME280;5317;49.048;8.468;2022-08-25T00:54:45;112049.66;;;-142.21;54.44
10539;BME280;5317;49.048;8.468;2022-08-25T00:57:18;112049.66;;;-142.21;54.46
10539;BME280;5317;49.048;8.468;2022-08-25T00:59:47;112049.66;;;-142.21;55.02
10539;BME280;5317;49.048;8.468;2022-08-25T01:02:15;112049.66;;;-142.21;54.98
10539;BME280;5317;49.048;8.468;2022-08-25T01:04:43;112049.66;;;-142.21;55.52
10539;BME280;5317;49.048;8.468;2022-08-25T01:07:11;112049.66;;;-142.21;55.39
10539;BME280;5317;49.048;8.468;2022-08-25T01:09:43;112049.66;;;-142.21;55.12
10539;BME280;5317;49.048;8.468;2022-08-25T01:12:11;112049.66;;;-142.21;55.93
10539;BME280;5317;49.048;8.468;2022-08-25T01:14:41;112049.66;;;-142.21;55.48
10539;BME280;5317;49.048;8.468;2022-08-25T01:17:11;112049.66;;;-142.21;55.92
10539;BME280;5317;49.048;8.468;2022-08-25T01:19:38;112049.66;;;-142.21;56.38
10539;BME280;5317;49.048;8.468;2022-08-25T01:22:08;112049.66;;;-142.21;56.53
10539;BME280;5317;49.048;8.468;2022-08-25T01:24:45;112049.66;;;-142.21;56.55
10539;BME280;5317;49.048;8.468;2022-08-25T01:27:13;112049.66;;;-142.21;56.80
10539;BME280;5317;49.048;8.468;2022-08-25T01:29:41;112049.66;;;-142.21;56.85
10539;BME280;5317;49.048;8.468;2022-08-25T01:32:11;112049.66;;;-142.21;56.59
10539;BME280;5317;49.048;8.468;2022-08-25T01:34:42;112049.66;;;-142.21;56.70
10539;BME280;5317;49.048;8.468;2022-08-25T01:37:14;112049.66;;;-142.21;56.80
10539;BME280;5317;49.048;8.468;2022-08-25T01:39:44;112049.66;;;-142.21;57.27
10539;BME280;5317;49.048;8.468;2022-08-25T01:42:41;112049.66;;;-142.21;57.49
10539;BME280;5317;49.048;8.468;2022-08-25T01:45:13;112049.66;;;-142.21;57.66
10539;BME280;5317;49.048;8.468;2022-08-25T01:47:43;112049.66;;;-142.21;58.00
10539;BME280;5317;49.048;8.468;2022-08-25T01:50:10;112049.66;;;-142.21;58.79
10539;BME280;5317;49.048;8.468;2022-08-25T01:52:50;112049.66;;;-142.21;59.02
10539;BME280;5317;49.048;8.468;2022-08-25T01:55:20;112049.66;;;-142.21;59.57
10539;BME280;5317;49.048;8.468;2022-08-25T01:57:47;112049.66;;;-142.21;59.94
10539;BME280;5317;49.048;8.468;2022-08-25T02:00:17;112049.66;;;-142.21;60.09
10539;BME280;5317;49.048;8.468;2022-08-25T02:02:45;112049.66;;;-142.21;60.09
10539;BME280;5317;49.048;8.468;2022-08-25T02:05:14;112049.66;;;-142.21;60.74
10539;BME280;5317;49.048;8.468;2022-08-25T02:07:46;112049.66;;;-142.21;61.23
10539;BME280;5317;49.048;8.468;2022-08-25T02:10:14;112049.66;;;-142.21;61.49
10539;BME280;5317;49.048;8.468;2022-08-25T02:12:41;112049.66;;;-142.21;61.51
10539;BME280;5317;49.048;8.468;2022-08-25T02:15:10;112049.66;;;-142.21;61.84
10539;BME280;5317;49.048;8.468;2022-08-25T02:17:37;112049.66;;;-142.21;61.98
10539;BME280;5317;49.048;8.468;2022-08-25T02:20:07;112049.66;;;-142.21;62.02
10539;BME280;5317;49.048;8.468;2022-08-25T02:22:34;112049.66;;;-142.21;62.02
10539;BME280;5317;49.048;8.468;2022-08-25T02:25:05;112049.66;;;-142.21;62.50
10539;BME280;5317;49.048;8.468;2022-08-25T02:27:32;112049.66;;;-142.21;62.85
10539;BME280;5317;49.048;8.468;2022-08-25T02:30:00;112049.66;;;-142.21;63.75
10539;BME280;5317;49.048;8.468;2022-08-25T02:32:30;112049.66;;;-142.21;64.27
10539;BME280;5317;49.048;8.468;2022-08-25T02:34:57;112049.66;;;-142.21;65.00
10539;BME280;5317;49.048;8.468;2022-08-25T02:37:24;112049.66;;;-142.21;65.22
10539;BME280;5317;49.048;8.468;2022-08-25T02:39:51;112049.66;;;-142.21;65.41
10539;BME280;5317;49.048;8.468;2022-08-25T02:42:20;112049.66;;;-142.21;65.18
10539;BME280;5317;49.048;8.468;2022-08-25T02:44:49;112049.66;;;-142.21;65.62
10539;BME280;5317;49.048;8.468;2022-08-25T02:47:17;112049.66;;;-142.21;65.52
10539;BME280;5317;49.048;8.468;2022-08-25T02:49:44;112049.66;;;-142.21;65.40
10539;BME280;5317;49.048;8.468;2022-08-25T02:52:11;112049.66;;;-142.21;65.33
10539;BME280;5317;49.048;8.468;2022-08-25T02:54:39;112049.66;;;-142.21;64.91
10539;BME280;5317;49.048;8.468;2022-08-25T02:57:06;112049.66;;;-142.21;64.60
10539;BME280;5317;49.048;8.468;2022-08-25T02:59:37;112049.66;;;-142.21;65.08
10539;BME280;5317;49.048;8.468;2022-08-25T03:02:05;112049.66;;;-142.21;65.02
10539;BME280;5317;49.048;8.468;2022-08-25T03:04:33;112049.66;;;-142.21;66.15
10539;BME280;5317;49.048;8.468;2022-08-25T03:07:00;112049.66;;;-142.21;66.80
10539;BME280;5317;49.048;8.468;2022-08-25T03:09:28;112049.66;;;-142.21;66.32
10539;BME280;5317;49.048;8.468;2022-08-25T03:11:55;112049.66;;;-142.21;66.49
10539;BME280;5317;49.048;8.468;2022-08-25T03:14:23;112049.66;;;-142.21;66.53
10539;BME280;5317;49.048;8.468;2022-08-25T03:16:51;112049.66;;;-142.21;66.37
10539;BME280;5317;49.048;8.468;2022-08-25T03:19:19;112049.66;;;-142.21;66.89
10539;BME280;5317;49.048;8.468;2022-08-25T03:21:46;112049.66;;;-142.21;67.02
10539;BME280;5317;49.048;8.468;2022-08-25T03:24:15;112049.66;;;-142.21;66.72
10539;BME280;5317;49.048;8.468;2022-08-25T03:26:43;112049.66;;;-142.21;67.05
10539;BME280;5317;49.048;8.468;2022-08-25T03:29:19;112049.66;;;-142.21;67.30
10539;BME280;5317;49.048;8.468;2022-08-25T03:31:47;112049.66;;;-142.21;67.17
10539;BME280;5317;49.048;8.468;2022-08-25T03:34:18;112049.66;;;-142.21;66.99
10539;BME280;5317;49.048;8.468;2022-08-25T03:36:48;112049.66;;;-142.21;67.14
10539;BME280;5317;49.048;8.468;2022-08-25T03:39:18;112049.66;;;-142.21;67.23
10539;BME280;5317;49.048;8.468;2022-08-25T03:41:46;112049.66;;;-142.21;67.52
10539;BME280;5317;49.048;8.468;2022-08-25T03:44:14;112049.66;;;-142.21;67.56
10539;BME280;5317;49.048;8.468;2022-08-25T03:46:44;112049.66;;;-142.21;67.79
10539;BME280;5317;49.048;8.468;2022-08-25T03:49:17;112049.66;;;-142.21;68.17
10539;BME280;5317;49.048;8.468;2022-08-25T03:51:48;112049.66;;;-142.21;68.58
10539;BME280;5317;49.048;8.468;2022-08-25T03:54:19;112049.66;;;-142.21;68.97
10539;BME280;5317;49.048;8.468;2022-08-25T03:56:47;112049.66;;;-142.21;69.60
10539;BME280;5317;49.048;8.468;2022-08-25T03:59:15;112049.66;;;-142.21;69.63
10539;BME280;5317;49.048;8.468;2022-08-25T04:01:44;112049.66;;;-142.21;70.00
10539;BME280;5317;49.048;8.468;2022-08-25T04:04:15;112049.66;;;-142.21;70.50
10539;BME280;5317;49.048;8.468;2022-08-25T04:06:43;112049.66;;;-142.21;70.67
10539;BME280;5317;49.048;8.468;2022-08-25T04:09:12;112049.66;;;-142.21;70.90
10539;BME280;5317;49.048;8.468;2022-08-25T04:11:39;112049.66;;;-142.21;71.03
10539;BME280;5317;49.048;8.468;2022-08-25T04:14:07;112049.66;;;-142.21;71.38
10539;BME280;5317;49.048;8.468;2022-08-25T04:16:37;112049.66;;;-142.21;72.28
10539;BME280;5317;49.048;8.468;2022-08-25T04:19:07;112049.66;;;-142.21;71.89
10539;BME280;5317;49.048;8.468;2022-08-25T04:21:38;112049.66;;;-142.21;71.77
10539;BME280;5317;49.048;8.468;2022-08-25T04:24:08;112049.66;;;-142.21;72.30
10539;BME280;5317;49.048;8.468;2022-08-25T04:26:39;112049.66;;;-142.21;72.54
10539;BME280;5317;49.048;8.468;2022-08-25T04:29:10;112049.66;;;-142.21;72.32
10539;BME280;5317;49.048;8.468;2022-08-25T04:31:42;112049.66;;;-142.21;72.30
10539;BME280;5317;49.048;8.468;2022-08-25T04:34:12;112049.66;;;-142.21;73.58
10539;BME280;5317;49.048;8.468;2022-08-25T04:36:41;112049.66;;;-142.21;74.07
10539;BME280;5317;49.048;8.468;2022-08-25T04:39:11;112049.66;;;-142.21;74.15
10539;BME280;5317;49.048;8.468;2022-08-25T04:41:39;112049.66;;;-142.21;76.13
10539;BME280;5317;49.048;8.468;2022-08-25T04:44:06;112049.66;;;-142.21;76.14
10539;BME280;5317;49.048;8.468;2022-08-25T04:46:34;112049.66;;;-142.21;76.73
10539;BME280;5317;49.048;8.468;2022-08-25T04:49:02;112049.66;;;-142.21;77.35
10539;BME280;5317;49.048;8.468;2022-08-25T04:51:33;112049.66;;;-142.21;77.77
10539;BME280;5317;49.048;8.468;2022-08-25T04:54:06;112049.66;;;-142.21;78.47
10539;BME280;5317;49.048;8.468;2022-08-25T04:56:35;112049.66;;;-142.21;78.43
10539;BME280;5317;49.048;8.468;2022-08-25T04:59:06;112049.66;;;-142.21;78.25
10539;BME280;5317;49.048;8.468;2022-08-25T05:01:34;112049.66;;;-142.21;79.43
10539;BME280;5317;49.048;8.468;2022-08-25T05:04:07;112049.66;;;-142.21;80.27
10539;BME280;5317;49.048;8.468;2022-08-25T05:06:35;112049.66;;;-142.21;79.83
10539;BME280;5317;49.048;8.468;2022-08-25T05:09:04;112049.66;;;-142.21;79.38
10539;BME280;5317;49.048;8.468;2022-08-25T05:11:32;112049.66;;;-142.21;78.79
10539;BME280;5317;49.048;8.468;2022-08-25T05:14:00;112049.66;;;-142.21;78.98
10539;BME280;5317;49.048;8.468;2022-08-25T05:16:28;112049.66;;;-142.21;78.63
10539;BME280;5317;49.048;8.468;2022-08-25T05:18:56;112049.66;;;-142.21;78.23
10539;BME280;5317;49.048;8.468;2022-08-25T05:21:26;112049.66;;;-142.21;78.28
10539;BME280;5317;49.048;8.468;2022-08-25T05:23:56;112049.66;;;-142.21;78.56
10539;BME280;5317;49.048;8.468;2022-08-25T05:26:28;112049.66;;;-142.21;77.92
10539;BME280;5317;49.048;8.468;2022-08-25T05:29:00;112049.66;;;-142.21;78.38
10539;BME280;5317;49.048;8.468;2022-08-25T05:31:30;112049.66;;;-142.21;79.38
10539;BME280;5317;49.048;8.468;2022-08-25T05:33:58;112049.66;;;-142.21;78.58
10539;BME280;5317;49.048;8.468;2022-08-25T05:36:27;112049.66;;;-142.21;77.47
10539;BME280;5317;49.048;8.468;2022-08-25T05:38:55;112049.66;;;-142.21;79.36
10539;BME280;5317;49.048;8.468;2022-08-25T05:41:28;112049.66;;;-142.21;79.67
10539;BME280;5317;49.048;8.468;2022-08-25T05:43:59;112049.66;;;-142.21;80.21
10539;BME280;5317;49.048;8.468;2022-08-25T05:46:26;112049.66;;;-142.21;79.83
10539;BME280;5317;49.048;8.468;2022-08-25T05:48:54;112049.66;;;-142.21;80.02
10539;BME280;5317;49.048;8.468;2022-08-25T05:51:21;112049.66;;;-142.21;80.14
10539;BME280;5317;49.048;8.468;2022-08-25T05:53:50;112049.66;;;-142.21;79.95
10539;BME280;5317;49.048;8.468;2022-08-25T05:56:18;112049.66;;;-142.21;79.80
10539;BME280;5317;49.048;8.468;2022-08-25T05:58:47;112049.66;;;-142.21;78.53
10539;BME280;5317;49.048;8.468;2022-08-25T06:01:21;112049.66;;;-142.21;78.67
10539;BME280;5317;49.048;8.468;2022-08-25T06:04:07;112049.66;;;-142.21;78.67
10539;BME280;5317;49.048;8.468;2022-08-25T06:06:35;112049.66;;;-142.21;78.85
10539;BME280;5317;49.048;8.468;2022-08-25T06:09:03;112049.66;;;-142.21;78.34
10539;BME280;5317;49.048;8.468;2022-08-25T06:11:35;112049.66;;;-142.21;78.69
10539;BME280;5317;49.048;8.468;2022-08-25T06:14:06;112049.66;;;-142.21;79.08
10539;BME280;5317;49.048;8.468;2022-08-25T06:16:33;112049.66;;;-142.21;76.91
10539;BME280;5317;49.048;8.468;2022-08-25T06:19:01;112049.66;;;-142.21;77.02
10539;BME280;5317;49.048;8.468;2022-08-25T06:21:28;112049.66;;;-142.21;76.47
10539;BME280;5317;49.048;8.468;2022-08-25T06:23:56;112049.66;;;-142.21;76.97
10539;BME280;5317;49.048;8.468;2022-08-25T06:26:24;112049.66;;;-142.21;76.01
10539;BME280;5317;49.048;8.468;2022-08-25T06:28:52;112049.66;;;-142.21;75.89
10539;BME280;5317;49.048;8.468;2022-08-25T06:31:21;112049.66;;;-142.21;75.56
10539;BME280;5317;49.048;8.468;2022-08-25T06:33:49;112049.66;;;-142.21;75.22
10539;BME280;5317;49.048;8.468;2022-08-25T06:36:17;112049.66;;;-142.21;74.55
10539;BME280;5317;49.048;8.468;2022-08-25T06:38:46;112049.66;;;-142.21;74.76
10539;BME280;5317;49.048;8.468;2022-08-25T06:41:13;112049.66;;;-142.21;74.80
10539;BME280;5317;49.048;8.468;2022-08-25T06:43:42;112049.66;;;-142.21;72.74
10539;BME280;5317;49.048;8.468;2022-08-25T06:46:12;112049.66;;;-142.21;72.81
10539;BME280;5317;49.048;8.468;2022-08-25T06:48:42;112049.66;;;-142.21;72.45
10539;BME280;5317;49.048;8.468;2022-08-25T06:51:17;112049.66;;;-142.21;71.82
10539;BME280;5317;49.048;8.468;2022-08-25T06:53:47;112049.66;;;-142.21;72.05
10539;BME280;5317;49.048;8.468;2022-08-25T06:56:17;112049.66;;;-142.21;71.93
10539;BME280;5317;49.048;8.468;2022-08-25T06:58:45;112049.66;;;-142.21;71.06
10539;BME280;5317;49.048;8.468;2022-08-25T07:01:16;112049.66;;;-142.21;70.46
10539;BME280;5317;49.048;8.468;2022-08-25T07:03:46;112049.66;;;-142.21;70.04
10539;BME280;5317;49.048;8.468;2022-08-25T07:06:15;112049.66;;;-142.21;69.72
10539;BME280;5317;49.048;8.468;2022-08-25T07:08:43;112049.66;;;-142.21;69.74
10539;BME280;5317;49.048;8.468;2022-08-25T07:11:11;112049.66;;;-142.21;69.48
10539;BME280;5317;49.048;8.468;2022-08-25T07:13:39;112049.66;;;-142.21;68.83
10539;BME280;5317;49.048;8.468;2022-08-25T07:16:07;112049.66;;;-142.21;68.55
10539;BME280;5317;49.048;8.468;2022-08-25T07:18:36;112049.66;;;-142.21;68.25
10539;BME280;5317;49.048;8.468;2022-08-25T07:21:05;112049.66;;;-142.21;67.54
10539;BME280;5317;49.048;8.468;2022-08-25T07:23:33;112049.66;;;-142.21;66.75
10539;BME280;5317;49.048;8.468;2022-08-25T07:26:08;112049.66;;;-142.21;66.57
10539;BME280;5317;49.048;8.468;2022-08-25T07:28:36;112049.66;;;-142.21;66.26
10539;BME280;5317;49.048;8.468;2022-08-25T07:31:04;112049.66;;;-142.21;65.98
10539;BME280;5317;49.048;8.468;2022-08-25T07:33:32;112049.66;;;-142.21;65.52
10539;BME280;5317;49.048;8.468;2022-08-25T07:35:59;112049.66;;;-142.21;66.05
10539;BME280;5317;49.048;8.468;2022-08-25T07:38:27;112049.66;;;-142.21;65.96
10539;BME280;5317;49.048;8.468;2022-08-25T07:41:01;112049.66;;;-142.21;64.92
10539;BME280;5317;49.048;8.468;2022-08-25T07:43:29;112049.66;;;-142.21;64.51
10539;BME280;5317;49.048;8.468;2022-08-25T07:45:56;112049.66;;;-142.21;64.81
10539;BME280;5317;49.048;8.468;2022-08-25T07:48:23;112049.66;;;-142.21;63.81
10539;BME280;5317;49.048;8.468;2022-08-25T07:50:51;112049.66;;;-142.21;64.33
10539;BME280;5317;49.048;8.468;2022-08-25T07:53:18;112049.66;;;-142.21;62.51
10539;BME280;5317;49.048;8.468;2022-08-25T07:55:47;112049.66;;;-142.21;63.71
10539;BME280;5317;49.048;8.468;2022-08-25T07:58:14;112049.66;;;-142.21;61.87
10539;BME280;5317;49.048;8.468;2022-08-25T08:00:47;112049.66;;;-142.21;61.20
10539;BME280;5317;49.048;8.468;2022-08-25T08:03:16;112049.66;;;-142.21;61.85
10539;BME280;5317;49.048;8.468;2022-08-25T08:05:43;112049.66;;;-142.21;59.25
10539;BME280;5317;49.048;8.468;2022-08-25T08:08:11;112049.66;;;-142.21;60.04
10539;BME280;5317;49.048;8.468;2022-08-25T08:10:39;112049.66;;;-142.21;61.33
10539;BME280;5317;49.048;8.468;2022-08-25T08:13:08;112049.66;;;-142.21;60.30
10539;BME280;5317;49.048;8.468;2022-08-25T08:15:36;112049.66;;;-142.21;59.62
10539;BME280;5317;49.048;8.468;2022-08-25T08:18:04;112049.66;;;-142.21;58.72
10539;BME280;5317;49.048;8.468;2022-08-25T08:20:31;112049.66;;;-142.21;59.20
10539;BME280;5317;49.048;8.468;2022-08-25T08:22:59;112049.66;;;-142.21;58.92
10539;BME280;5317;49.048;8.468;2022-08-25T08:25:27;112049.66;;;-142.21;56.48
10539;BME280;5317;49.048;8.468;2022-08-25T08:27:54;112049.66;;;-142.21;56.55
10539;BME280;5317;49.048;8.468;2022-08-25T08:30:23;112049.66;;;-142.21;55.29
10539;BME280;5317;49.048;8.468;2022-08-25T08:32:51;112049.66;;;-142.21;54.53
10539;BME280;5317;49.048;8.468;2022-08-25T08:35:18;112049.66;;;-142.21;55.52
10539;BME280;5317;49.048;8.468;2022-08-25T08:37:46;112049.66;;;-142.21;54.16
10539;BME280;5317;49.048;8.468;2022-08-25T08:40:15;112049.66;;;-142.21;52.47
10539;BME280;5317;49.048;8.468;2022-08-25T08:42:59;112049.66;;;-142.21;54.39
10539;BME280;5317;49.048;8.468;2022-08-25T08:45:36;112049.66;;;-142.21;53.75
10539;BME280;5317;49.048;8.468;2022-08-25T08:48:43;112049.66;;;-142.21;52.16
10539;BME280;5317;49.048;8.468;2022-08-25T08:51:20;112049.66;;;-142.21;50.20
10539;BME280;5317;49.048;8.468;2022-08-25T08:53:54;112049.66;;;-142.21;48.52
10539;BME280;5317;49.048;8.468;2022-08-25T08:56:27;112049.66;;;-142.21;48.28
10539;BME280;5317;49.048;8.468;2022-08-25T08:59:02;112049.66;;;-142.21;49.45
10539;BME280;5317;49.048;8.468;2022-08-25T09:01:39;112049.66;;;-142.21;48.63
10539;BME280;5317;49.048;8.468;2022-08-25T09:04:14;112049.66;;;-142.21;50.17
10539;BME280;5317;49.048;8.468;2022-08-25T09:06:46;112049.66;;;-142.21;48.59
10539;BME280;5317;49.048;8.468;2022-08-25T09:09:22;112049.66;;;-142.21;46.75
10539;BME280;5317;49.048;8.468;2022-08-25T09:12:01;112049.66;;;-142.21;46.07
10539;BME280;5317;49.048;8.468;2022-08-25T09:14:50;112049.66;;;-142.21;47.25
10539;BME280;5317;49.048;8.468;2022-08-25T09:17:42;112049.66;;;-142.21;45.42
10539;BME280;5317;49.048;8.468;2022-08-25T09:20:39;112049.66;;;-142.21;45.75
10539;BME280;5317;49.048;8.468;2022-08-25T09:23:27;112049.66;;;-142.21;43.41
10539;BME280;5317;49.048;8.468;2022-08-25T09:26:19;112049.66;;;-142.21;43.13
10539;BME280;5317;49.048;8.468;2022-08-25T09:29:02;112049.66;;;-142.21;42.41
10539;BME280;5317;49.048;8.468;2022-08-25T09:31:34;112049.66;;;-142.21;42.83
10539;BME280;5317;49.048;8.468;2022-08-25T09:34:10;112049.66;;;-142.21;41.79
10539;BME280;5317;49.048;8.468;2022-08-25T09:36:38;112049.66;;;-142.21;42.12
10539;BME280;5317;49.048;8.468;2022-08-25T09:39:07;112049.66;;;-142.21;42.08
10539;BME280;5317;49.048;8.468;2022-08-25T09:41:45;112049.66;;;-142.21;41.29
10539;BME280;5317;49.048;8.468;2022-08-25T09:44:20;112049.66;;;-142.21;40.21
10539;BME280;5317;49.048;8.468;2022-08-25T09:46:59;112049.66;;;-142.21;39.39
10539;BME280;5317;49.048;8.468;2022-08-25T09:49:38;112049.66;;;-142.21;39.69
10539;BME280;5317;49.048;8.468;2022-08-25T09:52:34;112049.66;;;-142.21;37.76
10539;BME280;5317;49.048;8.468;2022-08-25T09:55:30;112049.66;;;-142.21;38.51
10539;BME280;5317;49.048;8.468;2022-08-25T09:57:59;112049.66;;;-142.21;38.23
10539;BME280;5317;49.048;8.468;2022-08-25T10:00:30;112049.66;;;-142.21;37.66
10539;BME280;5317;49.048;8.468;2022-08-25T10:03:09;112049.66;;;-142.21;37.19
10539;BME280;5317;49.048;8.468;2022-08-25T10:05:58;112049.66;;;-142.21;37.66
10539;BME280;5317;49.048;8.468;2022-08-25T10:08:33;112049.66;;;-142.21;38.02
10539;BME280;5317;49.048;8.468;2022-08-25T10:11:04;112049.66;;;-142.21;38.30
10539;BME280;5317;49.048;8.468;2022-08-25T10:13:40;112049.66;;;-142.21;37.85
10539;BME280;5317;49.048;8.468;2022-08-25T10:16:21;112049.66;;;-142.21;38.20
10539;BME280;5317;49.048;8.468;2022-08-25T10:19:02;112049.66;;;-142.21;36.95
10539;BME280;5317;49.048;8.468;2022-08-25T10:21:35;112049.66;;;-142.21;37.17
10539;BME280;5317;49.048;8.468;2022-08-25T10:24:05;112049.66;;;-142.21;36.49
10539;BME280;5317;49.048;8.468;2022-08-25T10:26:53;112049.66;;;-95.87;36.45
10539;BME280;5317;49.048;8.468;2022-08-25T10:29:44;112049.66;;;-142.21;36.50
10539;BME280;5317;49.048;8.468;2022-08-25T10:32:22;112049.66;;;-142.21;35.88
10539;BME280;5317;49.048;8.468;2022-08-25T10:34:57;112049.66;;;-142.21;36.60
10539;BME280;5317;49.048;8.468;2022-08-25T10:37:41;112049.66;;;-142.21;35.79
10539;BME280;5317;49.048;8.468;2022-08-25T10:40:20;112049.66;;;-142.21;35.75
10539;BME280;5317;49.048;8.468;2022-08-25T10:43:04;112049.66;;;-142.21;35.12
10539;BME280;5317;49.048;8.468;2022-08-25T10:45:41;112049.66;;;-142.21;34.93
10539;BME280;5317;49.048;8.468;2022-08-25T10:48:41;112049.66;;;-142.21;35.08
10539;BME280;5317;49.048;8.468;2022-08-25T10:51:46;112049.66;;;-142.21;34.84
10539;BME280;5317;49.048;8.468;2022-08-25T10:54:39;112049.66;;;-142.21;34.19
10539;BME280;5317;49.048;8.468;2022-08-25T10:57:21;112049.66;;;-142.21;34.06
10539;BME280;5317;49.048;8.468;2022-08-25T10:59:59;112049.66;;;-142.21;34.08
10539;BME280;5317;49.048;8.468;2022-08-25T11:03:08;112049.66;;;-142.21;34.61
10539;BME280;5317;49.048;8.468;2022-08-25T11:05:46;112049.66;;;-142.21;33.98
10539;BME280;5317;49.048;8.468;2022-08-25T11:08:21;112049.66;;;-142.21;34.16
10539;BME280;5317;49.048;8.468;2022-08-25T11:11:04;112049.66;;;-142.21;34.30
10539;BME280;5317;49.048;8.468;2022-08-25T11:13:41;112049.66;;;-142.21;33.85
10539;BME280;5317;49.048;8.468;2022-08-25T11:16:14;112049.66;;;-142.21;33.33
10539;BME280;5317;49.048;8.468;2022-08-25T11:18:53;112049.66;;;-142.21;33.73
10539;BME280;5317;49.048;8.468;2022-08-25T11:21:30;112049.66;;;-142.21;33.69
10539;BME280;5317;49.048;8.468;2022-08-25T11:24:09;112049.66;;;-142.21;32.78
10539;BME280;5317;49.048;8.468;2022-08-25T11:26:45;112049.66;;;-142.21;32.97
10539;BME280;5317;49.048;8.468;2022-08-25T11:29:17;112049.66;;;-142.21;33.00
10539;BME280;5317;49.048;8.468;2022-08-25T11:31:51;112049.66;;;-142.21;32.15
10539;BME280;5317;49.048;8.468;2022-08-25T11:34:20;112049.66;;;-142.21;31.64
10539;BME280;5317;49.048;8.468;2022-08-25T11:36:51;112049.66;;;-142.21;32.15
10539;BME280;5317;49.048;8.468;2022-08-25T11:39:39;112049.66;;;-142.21;32.47
10539;BME280;5317;49.048;8.468;2022-08-25T11:42:20;112049.66;;;-142.21;32.16
10539;BME280;5317;49.048;8.468;2022-08-25T11:45:05;112049.66;;;-142.21;32.89
10539;BME280;5317;49.048;8.468;2022-08-25T11:47:53;112049.66;;;-142.21;32.27
10539;BME280;5317;49.048;8.468;2022-08-25T11:50:29;112049.66;;;-142.21;32.11
10539;BME280;5317;49.048;8.468;2022-08-25T11:53:16;112049.66;;;-142.21;32.56
10539;BME280;5317;49.048;8.468;2022-08-25T11:55:50;112049.66;;;-142.21;32.90
10539;BME280;5317;49.048;8.468;2022-08-25T11:58:46;112049.66;;;-142.21;33.17
10539;BME280;5317;49.048;8.468;2022-08-25T12:02:07;112049.66;;;-142.21;33.29
10539;BME280;5317;49.048;8.468;2022-08-25T12:04:38;112049.66;;;-142.21;32.57
10539;BME280;5317;49.048;8.468;2022-08-25T12:07:27;112049.66;;;-142.21;33.16
10539;BME280;5317;49.048;8.468;2022-08-25T12:10:18;112049.66;;;-142.21;32.96
10539;BME280;5317;49.048;8.468;2022-08-25T12:13:02;112049.66;;;-142.21;32.02
10539;BME280;5317;49.048;8.468;2022-08-25T12:15:56;112049.66;;;-142.21;32.42
10539;BME280;5317;49.048;8.468;2022-08-25T12:18:44;112049.66;;;-142.21;32.50
10539;BME280;5317;49.048;8.468;2022-08-25T12:21:32;112049.66;;;-142.21;31.59
10539;BME280;5317;49.048;8.468;2022-08-25T12:24:10;112049.66;;;-142.21;31.61
10539;BME280;5317;49.048;8.468;2022-08-25T12:26:52;112049.66;;;-142.21;31.04
10539;BME280;5317;49.048;8.468;2022-08-25T12:29:30;112049.66;;;-142.21;31.52
10539;BME280;5317;49.048;8.468;2022-08-25T12:32:39;112049.66;;;-142.21;31.93
10539;BME280;5317;49.048;8.468;2022-08-25T12:35:26;112049.66;;;-142.21;31.61
10539;BME280;5317;49.048;8.468;2022-08-25T12:38:08;112049.66;;;-142.21;31.41
10539;BME280;5317;49.048;8.468;2022-08-25T12:40:57;112049.66;;;-142.21;31.25
10539;BME280;5317;49.048;8.468;2022-08-25T12:43:30;112049.66;;;-142.21;31.23
10539;BME280;5317;49.048;8.468;2022-08-25T12:46:31;112049.66;;;-142.21;31.75
10539;BME280;5317;49.048;8.468;2022-08-25T12:49:02;112049.66;;;-142.21;31.88
10539;BME280;5317;49.048;8.468;2022-08-25T12:51:51;112049.66;;;-142.21;30.39
10539;BME280;5317;49.048;8.468;2022-08-25T12:54:37;112049.66;;;-142.21;30.67
10539;BME280;5317;49.048;8.468;2022-08-25T12:57:33;112049.66;;;-142.21;29.81
10539;BME280;5317;49.048;8.468;2022-08-25T13:00:15;112049.66;;;-142.21;30.44
10539;BME280;5317;49.048;8.468;2022-08-25T13:03:19;112049.66;;;-142.21;30.61
10539;BME280;5317;49.048;8.468;2022-08-25T13:06:30;112049.66;;;-142.21;31.65
10539;BME280;5317;49.048;8.468;2022-08-25T13:10:10;112049.66;;;-142.21;30.33
10539;BME280;5317;49.048;8.468;2022-08-25T13:12:48;112049.66;;;-142.21;30.18
10539;BME280;5317;49.048;8.468;2022-08-25T13:15:34;112049.66;;;-142.21;30.71